sensor_id;sensor_type;location;lat;lon;timestamp;temperature;humidity
9984;DHT22;16737;50.932;6.780;2023-09-08T00:01:09;22.90;79.40
9984;DHT22;16737;50.932;6.780;2023-09-08T00:03:35;22.90;79.50
9984;DHT22;16737;50.932;6.780;2023-09-08T00:06:04;22.90;80.30
9984;DHT22;16737;50.932;6.780;2023-09-08T00:08:34;22.90;79.90
9984;DHT22;16737;50.932;6.780;2023-09-08T00:11:01;22.90;79.80
9984;DHT22;16737;50.932;6.780;2023-09-08T00:13:28;22.90;79.80
9984;DHT22;16737;50.932;6.780;2023-09-08T00:15:55;22.80;79.90
9984;DHT22;16737;50.932;6.780;2023-09-08T00:18:22;22.80;80.10
9984;DHT22;16737;50.932;6.780;2023-09-08T00:20:49;22.80;80.20
9984;DHT22;16737;50.932;6.780;2023-09-08T00:23:17;22.80;80.30
9984;DHT22;16737;50.932;6.780;2023-09-08T00:25:44;22.80;80.70
9984;DHT22;16737;50.932;6.780;2023-09-08T00:28:11;22.80;80.50
9984;DHT22;16737;50.932;6.780;2023-09-08T00:30:38;22.80;80.70
9984;DHT22;16737;50.932;6.780;2023-09-08T00:33:05;22.80;80.70
9984;DHT22;16737;50.932;6.780;2023-09-08T00:35:34;22.80;80.90
9984;DHT22;16737;50.932;6.780;2023-09-08T00:38:01;22.70;80.90
9984;DHT22;16737;50.932;6.780;2023-09-08T00:40:29;22.70;81.10
9984;DHT22;16737;50.932;6.780;2023-09-08T00:42:58;22.70;81.40
9984;DHT22;16737;50.932;6.780;2023-09-08T00:45:27;22.70;81.20
9984;DHT22;16737;50.932;6.780;2023-09-08T00:47:56;22.70;81.50
9984;DHT22;16737;50.932;6.780;2023-09-08T00:50:25;22.70;81.30
9984;DHT22;16737;50.932;6.780;2023-09-08T00:52:55;22.70;81.50
9984;DHT22;16737;50.932;6.780;2023-09-08T00:55:26;22.70;82.00
9984;DHT22;16737;50.932;6.780;2023-09-08T00:57:55;22.70;81.60
9984;DHT22;16737;50.932;6.780;2023-09-08T01:00:22;22.70;81.80
9984;DHT22;16737;50.932;6.780;2023-09-08T01:02:49;22.60;81.60
9984;DHT22;16737;50.932;6.780;2023-09-08T01:05:16;22.60;81.80
9984;DHT22;16737;50.932;6.780;2023-09-08T01:07:44;22.70;82.00
9984;DHT22;16737;50.932;6.780;2023-09-08T01:10:13;22.60;82.10
9984;DHT22;16737;50.932;6.780;2023-09-08T01:12:41;22.60;82.20
9984;DHT22;16737;50.932;6.780;2023-09-08T01:15:10;22.60;82.20
9984;DHT22;16737;50.932;6.780;2023-09-08T01:17:37;22.60;82.50
9984;DHT22;16737;50.932;6.780;2023-09-08T01:20:08;22.60;82.30
9984;DHT22;16737;50.932;6.780;2023-09-08T01:22:52;22.60;82.60
9984;DHT22;16737;50.932;6.780;2023-09-08T01:25:32;22.60;82.90
9984;DHT22;16737;50.932;6.780;2023-09-08T01:28:02;22.60;82.50
9984;DHT22;16737;50.932;6.780;2023-09-08T01:30:31;22.60;82.40
9984;DHT22;16737;50.932;6.780;2023-09-08T01:32:59;22.60;82.50
9984;DHT22;16737;50.932;6.780;2023-09-08T01:35:27;22.60;82.50
9984;DHT22;16737;50.932;6.780;2023-09-08T01:37:54;22.50;82.40
9984;DHT22;16737;50.932;6.780;2023-09-08T01:40:21;22.50;82.50
9984;DHT22;16737;50.932;6.780;2023-09-08T01:42:51;22.50;82.50
9984;DHT22;16737;50.932;6.780;2023-09-08T01:45:18;22.50;82.80
9984;DHT22;16737;50.932;6.780;2023-09-08T01:47:45;22.40;82.60
9984;DHT22;16737;50.932;6.780;2023-09-08T01:50:12;22.40;82.60
9984;DHT22;16737;50.932;6.780;2023-09-08T01:52:40;22.40;82.80
9984;DHT22;16737;50.932;6.780;2023-09-08T01:55:07;22.40;82.80
9984;DHT22;16737;50.932;6.780;2023-09-08T01:57:37;22.40;82.90
9984;DHT22;16737;50.932;6.780;2023-09-08T02:00:07;22.40;82.90
9984;DHT22;16737;50.932;6.780;2023-09-08T02:02:34;22.40;83.20
9984;DHT22;16737;50.932;6.780;2023-09-08T02:05:01;22.40;82.90
9984;DHT22;16737;50.932;6.780;2023-09-08T02:07:29;22.30;82.90
9984;DHT22;16737;50.932;6.780;2023-09-08T02:09:57;22.30;83.70
9984;DHT22;16737;50.932;6.780;2023-09-08T02:12:24;22.30;83.00
9984;DHT22;16737;50.932;6.780;2023-09-08T02:14:51;22.30;83.00
9984;DHT22;16737;50.932;6.780;2023-09-08T02:17:19;22.20;83.10
9984;DHT22;16737;50.932;6.780;2023-09-08T02:19:46;22.20;83.10
9984;DHT22;16737;50.932;6.780;2023-09-08T02:22:13;22.20;83.00
9984;DHT22;16737;50.932;6.780;2023-09-08T02:24:40;22.10;83.00
9984;DHT22;16737;50.932;6.780;2023-09-08T02:27:07;22.10;83.20
9984;DHT22;16737;50.932;6.780;2023-09-08T02:29:34;22.00;83.30
9984;DHT22;16737;50.932;6.780;2023-09-08T02:32:02;22.00;83.50
9984;DHT22;16737;50.932;6.780;2023-09-08T02:34:34;21.90;83.40
9984;DHT22;16737;50.932;6.780;2023-09-08T02:37:03;21.80;84.00
9984;DHT22;16737;50.932;6.780;2023-09-08T02:39:30;21.80;83.60
9984;DHT22;16737;50.932;6.780;2023-09-08T02:41:58;21.80;83.70
9984;DHT22;16737;50.932;6.780;2023-09-08T02:44:27;21.70;83.80
9984;DHT22;16737;50.932;6.780;2023-09-08T02:46:54;21.70;84.00
9984;DHT22;16737;50.932;6.780;2023-09-08T02:49:21;21.70;84.20
9984;DHT22;16737;50.932;6.780;2023-09-08T02:51:50;21.60;84.30
9984;DHT22;16737;50.932;6.780;2023-09-08T02:54:17;21.60;84.60
9984;DHT22;16737;50.932;6.780;2023-09-08T02:56:44;21.60;84.50
9984;DHT22;16737;50.932;6.780;2023-09-08T02:59:11;21.60;84.60
9984;DHT22;16737;50.932;6.780;2023-09-08T03:01:38;21.60;84.70
9984;DHT22;16737;50.932;6.780;2023-09-08T03:04:05;21.60;84.80
9984;DHT22;16737;50.932;6.780;2023-09-08T03:06:32;21.60;84.90
9984;DHT22;16737;50.932;6.780;2023-09-08T03:09:03;21.60;85.10
9984;DHT22;16737;50.932;6.780;2023-09-08T03:11:30;21.50;85.20
9984;DHT22;16737;50.932;6.780;2023-09-08T03:13:57;21.50;85.20
9984;DHT22;16737;50.932;6.780;2023-09-08T03:16:24;21.50;85.30
9984;DHT22;16737;50.932;6.780;2023-09-08T03:18:51;21.50;85.40
9984;DHT22;16737;50.932;6.780;2023-09-08T03:21:18;21.50;85.60
9984;DHT22;16737;50.932;6.780;2023-09-08T03:23:45;21.40;85.60
9984;DHT22;16737;50.932;6.780;2023-09-08T03:26:14;21.40;85.70
9984;DHT22;16737;50.932;6.780;2023-09-08T03:28:42;21.30;85.90
9984;DHT22;16737;50.932;6.780;2023-09-08T03:31:09;21.30;86.00
9984;DHT22;16737;50.932;6.780;2023-09-08T03:33:36;21.30;86.00
9984;DHT22;16737;50.932;6.780;2023-09-08T03:36:04;21.30;86.10
9984;DHT22;16737;50.932;6.780;2023-09-08T03:38:31;21.20;86.20
9984;DHT22;16737;50.932;6.780;2023-09-08T03:40:58;21.20;86.30
9984;DHT22;16737;50.932;6.780;2023-09-08T03:43:27;21.20;86.40
9984;DHT22;16737;50.932;6.780;2023-09-08T03:45:53;21.20;86.70
9984;DHT22;16737;50.932;6.780;2023-09-08T03:48:20;21.10;86.50
9984;DHT22;16737;50.932;6.780;2023-09-08T03:50:47;21.10;87.40
9984;DHT22;16737;50.932;6.780;2023-09-08T03:53:14;21.10;86.80
9984;DHT22;16737;50.932;6.780;2023-09-08T03:55:41;21.10;86.90
9984;DHT22;16737;50.932;6.780;2023-09-08T03:58:08;21.10;87.10
9984;DHT22;16737;50.932;6.780;2023-09-08T04:00:37;21.00;87.10
9984;DHT22;16737;50.932;6.780;2023-09-08T04:03:04;21.00;87.50
9984;DHT22;16737;50.932;6.780;2023-09-08T04:05:31;21.00;87.60
9984;DHT22;16737;50.932;6.780;2023-09-08T04:07:58;21.00;87.60
9984;DHT22;16737;50.932;6.780;2023-09-08T04:10:25;20.90;87.70
9984;DHT22;16737;50.932;6.780;2023-09-08T04:12:52;20.90;87.90
9984;DHT22;16737;50.932;6.780;2023-09-08T04:15:19;20.90;88.00
9984;DHT22;16737;50.932;6.780;2023-09-08T04:17:48;20.90;88.20
9984;DHT22;16737;50.932;6.780;2023-09-08T04:20:16;20.90;88.40
9984;DHT22;16737;50.932;6.780;2023-09-08T04:22:43;20.90;88.30
9984;DHT22;16737;50.932;6.780;2023-09-08T04:25:10;20.90;88.40
9984;DHT22;16737;50.932;6.780;2023-09-08T04:27:38;20.90;88.50
9984;DHT22;16737;50.932;6.780;2023-09-08T04:30:06;20.90;88.50
9984;DHT22;16737;50.932;6.780;2023-09-08T04:32:34;20.90;89.30
9984;DHT22;16737;50.932;6.780;2023-09-08T04:35:05;20.80;88.50
9984;DHT22;16737;50.932;6.780;2023-09-08T04:37:32;20.80;88.90
9984;DHT22;16737;50.932;6.780;2023-09-08T04:39:59;20.80;88.80
9984;DHT22;16737;50.932;6.780;2023-09-08T04:42:26;20.80;88.90
9984;DHT22;16737;50.932;6.780;2023-09-08T04:44:53;20.70;88.80
9984;DHT22;16737;50.932;6.780;2023-09-08T04:47:20;20.70;88.90
9984;DHT22;16737;50.932;6.780;2023-09-08T04:49:47;20.70;88.90
9984;DHT22;16737;50.932;6.780;2023-09-08T04:52:15;20.70;89.10
9984;DHT22;16737;50.932;6.780;2023-09-08T04:54:42;20.70;89.40
9984;DHT22;16737;50.932;6.780;2023-09-08T04:57:09;20.60;89.30
9984;DHT22;16737;50.932;6.780;2023-09-08T04:59:36;20.50;89.40
9984;DHT22;16737;50.932;6.780;2023-09-08T05:02:04;20.50;89.60
9984;DHT22;16737;50.932;6.780;2023-09-08T05:04:31;20.50;89.80
9984;DHT22;16737;50.932;6.780;2023-09-08T05:06:58;20.40;89.90
9984;DHT22;16737;50.932;6.780;2023-09-08T05:09:26;20.40;90.00
9984;DHT22;16737;50.932;6.780;2023-09-08T05:11:53;20.30;90.20
9984;DHT22;16737;50.932;6.780;2023-09-08T05:14:20;20.30;90.20
9984;DHT22;16737;50.932;6.780;2023-09-08T05:16:50;20.20;90.20
9984;DHT22;16737;50.932;6.780;2023-09-08T05:19:21;20.20;90.30
9984;DHT22;16737;50.932;6.780;2023-09-08T05:21:50;20.20;90.40
9984;DHT22;16737;50.932;6.780;2023-09-08T05:24:17;20.10;90.50
9984;DHT22;16737;50.932;6.780;2023-09-08T05:26:47;20.10;90.50
9984;DHT22;16737;50.932;6.780;2023-09-08T05:29:14;20.10;90.70
9984;DHT22;16737;50.932;6.780;2023-09-08T05:31:41;20.10;90.70
9984;DHT22;16737;50.932;6.780;2023-09-08T05:34:08;20.10;90.80
9984;DHT22;16737;50.932;6.780;2023-09-08T05:36:35;20.10;90.90
9984;DHT22;16737;50.932;6.780;2023-09-08T05:39:05;20.10;90.90
9984;DHT22;16737;50.932;6.780;2023-09-08T05:41:33;20.10;91.00
9984;DHT22;16737;50.932;6.780;2023-09-08T05:44:02;20.10;91.00
9984;DHT22;16737;50.932;6.780;2023-09-08T05:46:29;20.10;91.20
9984;DHT22;16737;50.932;6.780;2023-09-08T05:48:56;20.10;91.20
9984;DHT22;16737;50.932;6.780;2023-09-08T05:51:23;20.10;91.20
9984;DHT22;16737;50.932;6.780;2023-09-08T05:53:50;20.20;91.30
9984;DHT22;16737;50.932;6.780;2023-09-08T05:56:18;20.20;91.40
9984;DHT22;16737;50.932;6.780;2023-09-08T05:58:46;20.20;91.40
9984;DHT22;16737;50.932;6.780;2023-09-08T06:01:15;20.30;91.50
9984;DHT22;16737;50.932;6.780;2023-09-08T06:03:43;20.30;91.70
9984;DHT22;16737;50.932;6.780;2023-09-08T06:06:10;20.40;91.60
9984;DHT22;16737;50.932;6.780;2023-09-08T06:08:37;20.40;91.60
9984;DHT22;16737;50.932;6.780;2023-09-08T06:11:07;20.50;91.70
9984;DHT22;16737;50.932;6.780;2023-09-08T06:13:34;20.50;91.70
9984;DHT22;16737;50.932;6.780;2023-09-08T06:16:01;20.60;91.80
9984;DHT22;16737;50.932;6.780;2023-09-08T06:18:29;20.60;91.80
9984;DHT22;16737;50.932;6.780;2023-09-08T06:20:57;20.70;91.90
9984;DHT22;16737;50.932;6.780;2023-09-08T06:23:24;20.70;91.90
9984;DHT22;16737;50.932;6.780;2023-09-08T06:25:50;20.80;91.90
9984;DHT22;16737;50.932;6.780;2023-09-08T06:28:24;20.80;91.90
9984;DHT22;16737;50.932;6.780;2023-09-08T06:30:51;20.80;91.80
9984;DHT22;16737;50.932;6.780;2023-09-08T06:33:18;20.90;91.90
9984;DHT22;16737;50.932;6.780;2023-09-08T06:35:47;21.00;92.00
9984;DHT22;16737;50.932;6.780;2023-09-08T06:38:14;21.00;92.10
9984;DHT22;16737;50.932;6.780;2023-09-08T06:40:41;21.10;92.10
9984;DHT22;16737;50.932;6.780;2023-09-08T06:43:10;21.20;92.10
9984;DHT22;16737;50.932;6.780;2023-09-08T06:45:38;21.20;92.10
9984;DHT22;16737;50.932;6.780;2023-09-08T06:48:05;21.30;92.10
9984;DHT22;16737;50.932;6.780;2023-09-08T06:50:33;21.30;92.20
9984;DHT22;16737;50.932;6.780;2023-09-08T06:53:01;21.40;92.10
9984;DHT22;16737;50.932;6.780;2023-09-08T06:55:28;21.50;92.30
9984;DHT22;16737;50.932;6.780;2023-09-08T06:57:56;21.60;92.30
9984;DHT22;16737;50.932;6.780;2023-09-08T07:00:24;21.60;92.20
9984;DHT22;16737;50.932;6.780;2023-09-08T07:02:51;21.70;92.20
9984;DHT22;16737;50.932;6.780;2023-09-08T07:05:19;21.80;92.20
9984;DHT22;16737;50.932;6.780;2023-09-08T07:07:46;21.90;92.20
9984;DHT22;16737;50.932;6.780;2023-09-08T07:10:14;21.90;92.10
9984;DHT22;16737;50.932;6.780;2023-09-08T07:12:44;22.00;92.20
9984;DHT22;16737;50.932;6.780;2023-09-08T07:15:11;22.10;92.30
9984;DHT22;16737;50.932;6.780;2023-09-08T07:17:38;22.20;92.20
9984;DHT22;16737;50.932;6.780;2023-09-08T07:20:05;22.30;92.10
9984;DHT22;16737;50.932;6.780;2023-09-08T07:22:33;22.40;92.10
9984;DHT22;16737;50.932;6.780;2023-09-08T07:25:00;22.40;92.10
9984;DHT22;16737;50.932;6.780;2023-09-08T07:27:28;22.50;92.10
9984;DHT22;16737;50.932;6.780;2023-09-08T07:29:56;22.60;92.10
9984;DHT22;16737;50.932;6.780;2023-09-08T07:32:22;22.70;92.10
9984;DHT22;16737;50.932;6.780;2023-09-08T07:34:50;22.80;92.20
9984;DHT22;16737;50.932;6.780;2023-09-08T07:37:20;22.90;92.20
9984;DHT22;16737;50.932;6.780;2023-09-08T07:39:48;23.00;92.10
9984;DHT22;16737;50.932;6.780;2023-09-08T07:42:15;23.10;92.10
9984;DHT22;16737;50.932;6.780;2023-09-08T07:44:44;23.20;92.10
9984;DHT22;16737;50.932;6.780;2023-09-08T07:47:11;23.20;92.00
9984;DHT22;16737;50.932;6.780;2023-09-08T07:49:38;23.30;92.00
9984;DHT22;16737;50.932;6.780;2023-09-08T07:52:05;23.40;92.00
9984;DHT22;16737;50.932;6.780;2023-09-08T07:54:33;23.50;92.00
9984;DHT22;16737;50.932;6.780;2023-09-08T07:56:59;23.60;92.00
9984;DHT22;16737;50.932;6.780;2023-09-08T07:59:26;23.70;91.90
9984;DHT22;16737;50.932;6.780;2023-09-08T08:01:55;23.80;92.00
9984;DHT22;16737;50.932;6.780;2023-09-08T08:04:22;23.90;91.90
9984;DHT22;16737;50.932;6.780;2023-09-08T08:06:49;24.10;91.90
9984;DHT22;16737;50.932;6.780;2023-09-08T08:09:16;24.20;91.90
9984;DHT22;16737;50.932;6.780;2023-09-08T08:11:43;24.30;91.80
9984;DHT22;16737;50.932;6.780;2023-09-08T08:14:10;24.40;91.70
9984;DHT22;16737;50.932;6.780;2023-09-08T08:16:37;24.50;91.70
9984;DHT22;16737;50.932;6.780;2023-09-08T08:19:05;24.60;91.60
9984;DHT22;16737;50.932;6.780;2023-09-08T08:21:32;24.70;91.60
9984;DHT22;16737;50.932;6.780;2023-09-08T08:23:59;24.80;91.50
9984;DHT22;16737;50.932;6.780;2023-09-08T08:26:25;24.90;91.50
9984;DHT22;16737;50.932;6.780;2023-09-08T08:28:55;25.00;91.40
9984;DHT22;16737;50.932;6.780;2023-09-08T08:31:22;25.20;91.40
9984;DHT22;16737;50.932;6.780;2023-09-08T08:33:49;25.30;91.70
9984;DHT22;16737;50.932;6.780;2023-09-08T08:36:18;25.40;91.40
9984;DHT22;16737;50.932;6.780;2023-09-08T08:38:44;25.50;91.30
9984;DHT22;16737;50.932;6.780;2023-09-08T08:41:11;25.60;91.20
9984;DHT22;16737;50.932;6.780;2023-09-08T08:43:43;25.70;91.00
9984;DHT22;16737;50.932;6.780;2023-09-08T08:46:12;25.90;90.90
9984;DHT22;16737;50.932;6.780;2023-09-08T08:48:40;25.90;90.80
9984;DHT22;16737;50.932;6.780;2023-09-08T08:51:11;26.10;90.80
9984;DHT22;16737;50.932;6.780;2023-09-08T08:53:41;26.20;90.80
9984;DHT22;16737;50.932;6.780;2023-09-08T08:56:09;26.30;90.50
9984;DHT22;16737;50.932;6.780;2023-09-08T08:58:37;26.40;90.50
9984;DHT22;16737;50.932;6.780;2023-09-08T09:01:06;26.50;90.50
9984;DHT22;16737;50.932;6.780;2023-09-08T09:03:35;26.60;90.40
9984;DHT22;16737;50.932;6.780;2023-09-08T09:06:04;26.70;90.20
9984;DHT22;16737;50.932;6.780;2023-09-08T09:08:31;26.90;90.20
9984;DHT22;16737;50.932;6.780;2023-09-08T09:11:00;27.00;90.00
9984;DHT22;16737;50.932;6.780;2023-09-08T09:13:27;27.10;89.90
9984;DHT22;16737;50.932;6.780;2023-09-08T09:15:58;27.10;89.60
9984;DHT22;16737;50.932;6.780;2023-09-08T09:18:28;27.30;88.70
9984;DHT22;16737;50.932;6.780;2023-09-08T09:20:58;27.40;89.20
9984;DHT22;16737;50.932;6.780;2023-09-08T09:23:30;27.50;88.90
9984;DHT22;16737;50.932;6.780;2023-09-08T09:25:58;27.60;88.20
9984;DHT22;16737;50.932;6.780;2023-09-08T09:28:29;27.70;88.70
9984;DHT22;16737;50.932;6.780;2023-09-08T09:30:56;27.80;88.50
9984;DHT22;16737;50.932;6.780;2023-09-08T09:33:24;28.00;88.20
9984;DHT22;16737;50.932;6.780;2023-09-08T09:35:52;28.10;87.80
9984;DHT22;16737;50.932;6.780;2023-09-08T09:38:21;28.20;87.70
9984;DHT22;16737;50.932;6.780;2023-09-08T09:40:49;28.30;87.40
9984;DHT22;16737;50.932;6.780;2023-09-08T09:43:19;28.40;86.90
9984;DHT22;16737;50.932;6.780;2023-09-08T09:45:48;28.60;86.40
9984;DHT22;16737;50.932;6.780;2023-09-08T09:48:15;28.70;86.40
9984;DHT22;16737;50.932;6.780;2023-09-08T09:50:45;28.80;86.00
9984;DHT22;16737;50.932;6.780;2023-09-08T09:53:14;28.90;85.90
9984;DHT22;16737;50.932;6.780;2023-09-08T09:55:43;29.00;85.50
9984;DHT22;16737;50.932;6.780;2023-09-08T09:58:12;29.10;85.00
9984;DHT22;16737;50.932;6.780;2023-09-08T10:00:41;29.20;84.90
9984;DHT22;16737;50.932;6.780;2023-09-08T10:03:13;29.30;84.50
9984;DHT22;16737;50.932;6.780;2023-09-08T10:05:40;29.40;84.60
9984;DHT22;16737;50.932;6.780;2023-09-08T10:08:07;29.50;84.30
9984;DHT22;16737;50.932;6.780;2023-09-08T10:10:35;29.60;84.30
9984;DHT22;16737;50.932;6.780;2023-09-08T10:13:06;29.70;84.30
9984;DHT22;16737;50.932;6.780;2023-09-08T10:15:33;29.80;83.00
9984;DHT22;16737;50.932;6.780;2023-09-08T10:18:04;29.90;83.10
9984;DHT22;16737;50.932;6.780;2023-09-08T10:20:33;30.00;82.30
9984;DHT22;16737;50.932;6.780;2023-09-08T10:23:06;30.10;82.40
9984;DHT22;16737;50.932;6.780;2023-09-08T10:25:42;30.20;81.10
9984;DHT22;16737;50.932;6.780;2023-09-08T10:28:13;30.30;81.70
9984;DHT22;16737;50.932;6.780;2023-09-08T10:30:40;30.40;81.50
9984;DHT22;16737;50.932;6.780;2023-09-08T10:33:10;30.50;81.30
9984;DHT22;16737;50.932;6.780;2023-09-08T10:35:38;30.60;81.20
9984;DHT22;16737;50.932;6.780;2023-09-08T10:38:22;30.70;81.50
9984;DHT22;16737;50.932;6.780;2023-09-08T10:40:50;30.80;79.70
9984;DHT22;16737;50.932;6.780;2023-09-08T10:43:18;30.90;80.20
9984;DHT22;16737;50.932;6.780;2023-09-08T10:45:46;31.00;80.00
9984;DHT22;16737;50.932;6.780;2023-09-08T10:48:15;31.10;80.40
9984;DHT22;16737;50.932;6.780;2023-09-08T10:50:42;31.10;79.10
9984;DHT22;16737;50.932;6.780;2023-09-08T10:53:15;31.30;79.00
9984;DHT22;16737;50.932;6.780;2023-09-08T10:55:44;31.40;77.30
9984;DHT22;16737;50.932;6.780;2023-09-08T10:58:30;31.50;78.50
9984;DHT22;16737;50.932;6.780;2023-09-08T11:01:00;31.60;77.00
9984;DHT22;16737;50.932;6.780;2023-09-08T11:03:43;31.70;77.80
9984;DHT22;16737;50.932;6.780;2023-09-08T11:06:15;31.80;76.20
9984;DHT22;16737;50.932;6.780;2023-09-08T11:08:43;31.90;78.20
9984;DHT22;16737;50.932;6.780;2023-09-08T11:11:12;32.00;78.20
9984;DHT22;16737;50.932;6.780;2023-09-08T11:13:40;32.10;77.10
9984;DHT22;16737;50.932;6.780;2023-09-08T11:16:11;32.20;76.80
9984;DHT22;16737;50.932;6.780;2023-09-08T11:18:38;32.30;77.00
9984;DHT22;16737;50.932;6.780;2023-09-08T11:21:09;32.40;76.50
9984;DHT22;16737;50.932;6.780;2023-09-08T11:23:38;32.50;76.00
9984;DHT22;16737;50.932;6.780;2023-09-08T11:26:06;32.60;76.80
9984;DHT22;16737;50.932;6.780;2023-09-08T11:28:34;32.70;75.80
9984;DHT22;16737;50.932;6.780;2023-09-08T11:31:02;32.80;75.20
9984;DHT22;16737;50.932;6.780;2023-09-08T11:33:35;32.90;74.30
9984;DHT22;16737;50.932;6.780;2023-09-08T11:36:13;32.90;72.60
9984;DHT22;16737;50.932;6.780;2023-09-08T11:38:42;33.10;72.40
9984;DHT22;16737;50.932;6.780;2023-09-08T11:41:10;33.10;72.30
9984;DHT22;16737;50.932;6.780;2023-09-08T11:43:38;33.20;72.30
9984;DHT22;16737;50.932;6.780;2023-09-08T11:46:05;33.20;71.80
9984;DHT22;16737;50.932;6.780;2023-09-08T11:48:32;33.20;72.00
9984;DHT22;16737;50.932;6.780;2023-09-08T11:50:59;33.30;72.70
9984;DHT22;16737;50.932;6.780;2023-09-08T11:53:27;33.40;72.60
9984;DHT22;16737;50.932;6.780;2023-09-08T11:55:55;33.40;71.20
9984;DHT22;16737;50.932;6.780;2023-09-08T11:58:22;33.50;71.80
9984;DHT22;16737;50.932;6.780;2023-09-08T12:00:50;33.50;71.20
9984;DHT22;16737;50.932;6.780;2023-09-08T12:03:17;33.60;71.10
9984;DHT22;16737;50.932;6.780;2023-09-08T12:05:51;33.70;69.80
9984;DHT22;16737;50.932;6.780;2023-09-08T12:08:18;33.70;68.10
9984;DHT22;16737;50.932;6.780;2023-09-08T12:10:47;33.80;69.90
9984;DHT22;16737;50.932;6.780;2023-09-08T12:13:20;33.80;68.20
9984;DHT22;16737;50.932;6.780;2023-09-08T12:15:49;33.90;66.40
9984;DHT22;16737;50.932;6.780;2023-09-08T12:18:16;33.90;67.20
9984;DHT22;16737;50.932;6.780;2023-09-08T12:20:44;33.90;66.80
9984;DHT22;16737;50.932;6.780;2023-09-08T12:23:16;33.90;67.00
9984;DHT22;16737;50.932;6.780;2023-09-08T12:25:45;34.00;66.60
9984;DHT22;16737;50.932;6.780;2023-09-08T12:28:15;34.00;67.00
9984;DHT22;16737;50.932;6.780;2023-09-08T12:30:43;34.00;67.10
9984;DHT22;16737;50.932;6.780;2023-09-08T12:33:11;34.00;65.70
9984;DHT22;16737;50.932;6.780;2023-09-08T12:35:42;34.10;65.70
9984;DHT22;16737;50.932;6.780;2023-09-08T12:38:10;34.10;65.00
9984;DHT22;16737;50.932;6.780;2023-09-08T12:40:38;34.10;65.30
9984;DHT22;16737;50.932;6.780;2023-09-08T12:43:06;34.20;65.40
9984;DHT22;16737;50.932;6.780;2023-09-08T12:45:33;34.20;64.80
9984;DHT22;16737;50.932;6.780;2023-09-08T12:48:02;34.30;64.70
9984;DHT22;16737;50.932;6.780;2023-09-08T12:50:29;34.30;64.30
9984;DHT22;16737;50.932;6.780;2023-09-08T12:52:56;34.40;64.10
9984;DHT22;16737;50.932;6.780;2023-09-08T12:55:23;34.40;63.70
9984;DHT22;16737;50.932;6.780;2023-09-08T12:57:51;34.50;63.20
9984;DHT22;16737;50.932;6.780;2023-09-08T13:00:21;34.50;63.30
9984;DHT22;16737;50.932;6.780;2023-09-08T13:02:49;34.50;63.60
9984;DHT22;16737;50.932;6.780;2023-09-08T13:05:16;34.60;63.40
9984;DHT22;16737;50.932;6.780;2023-09-08T13:07:43;34.60;62.70
9984;DHT22;16737;50.932;6.780;2023-09-08T13:10:10;34.70;61.90
9984;DHT22;16737;50.932;6.780;2023-09-08T13:12:37;34.70;61.50
9984;DHT22;16737;50.932;6.780;2023-09-08T13:15:05;34.70;61.20
9984;DHT22;16737;50.932;6.780;2023-09-08T13:17:34;34.70;61.40
9984;DHT22;16737;50.932;6.780;2023-09-08T13:20:01;34.70;60.50
9984;DHT22;16737;50.932;6.780;2023-09-08T13:22:29;34.70;60.70
9984;DHT22;16737;50.932;6.780;2023-09-08T13:24:56;34.70;60.30
9984;DHT22;16737;50.932;6.780;2023-09-08T13:27:23;34.60;59.90
9984;DHT22;16737;50.932;6.780;2023-09-08T13:29:53;34.70;59.80
9984;DHT22;16737;50.932;6.780;2023-09-08T13:32:20;34.60;59.90
9984;DHT22;16737;50.932;6.780;2023-09-08T13:34:49;34.60;59.70
9984;DHT22;16737;50.932;6.780;2023-09-08T13:37:16;34.50;59.70
9984;DHT22;16737;50.932;6.780;2023-09-08T13:39:43;34.60;59.40
9984;DHT22;16737;50.932;6.780;2023-09-08T13:42:10;34.50;59.60
9984;DHT22;16737;50.932;6.780;2023-09-08T13:44:37;34.50;59.70
9984;DHT22;16737;50.932;6.780;2023-09-08T13:47:04;34.50;59.20
9984;DHT22;16737;50.932;6.780;2023-09-08T13:49:31;34.50;59.70
9984;DHT22;16737;50.932;6.780;2023-09-08T13:51:59;34.50;59.20
9984;DHT22;16737;50.932;6.780;2023-09-08T13:54:26;34.50;58.80
9984;DHT22;16737;50.932;6.780;2023-09-08T13:57:00;34.50;58.90
9984;DHT22;16737;50.932;6.780;2023-09-08T13:59:30;34.50;58.70
9984;DHT22;16737;50.932;6.780;2023-09-08T14:01:57;34.50;58.90
9984;DHT22;16737;50.932;6.780;2023-09-08T14:04:24;34.50;59.30
9984;DHT22;16737;50.932;6.780;2023-09-08T14:06:52;34.50;58.60
9984;DHT22;16737;50.932;6.780;2023-09-08T14:09:20;34.50;58.30
9984;DHT22;16737;50.932;6.780;2023-09-08T14:11:47;34.50;58.50
9984;DHT22;16737;50.932;6.780;2023-09-08T14:14:14;34.50;58.10
9984;DHT22;16737;50.932;6.780;2023-09-08T14:16:41;34.50;57.80
9984;DHT22;16737;50.932;6.780;2023-09-08T14:19:08;34.50;57.80
9984;DHT22;16737;50.932;6.780;2023-09-08T14:21:35;34.50;57.80
9984;DHT22;16737;50.932;6.780;2023-09-08T14:24:05;34.50;57.70
9984;DHT22;16737;50.932;6.780;2023-09-08T14:26:33;34.50;57.80
9984;DHT22;16737;50.932;6.780;2023-09-08T14:29:01;34.50;57.40
9984;DHT22;16737;50.932;6.780;2023-09-08T14:31:28;34.40;57.40
9984;DHT22;16737;50.932;6.780;2023-09-08T14:33:55;34.50;57.50
9984;DHT22;16737;50.932;6.780;2023-09-08T14:36:22;34.50;57.30
9984;DHT22;16737;50.932;6.780;2023-09-08T14:38:49;34.50;57.20
9984;DHT22;16737;50.932;6.780;2023-09-08T14:41:16;34.40;57.50
9984;DHT22;16737;50.932;6.780;2023-09-08T14:43:45;34.40;58.10
9984;DHT22;16737;50.932;6.780;2023-09-08T14:46:12;34.50;57.80
9984;DHT22;16737;50.932;6.780;2023-09-08T14:48:39;34.50;57.50
9984;DHT22;16737;50.932;6.780;2023-09-08T14:51:07;34.40;57.70
9984;DHT22;16737;50.932;6.780;2023-09-08T14:53:34;34.40;57.10
9984;DHT22;16737;50.932;6.780;2023-09-08T14:56:01;34.40;57.00
9984;DHT22;16737;50.932;6.780;2023-09-08T14:58:29;34.50;57.30
9984;DHT22;16737;50.932;6.780;2023-09-08T15:01:08;34.50;57.40
9984;DHT22;16737;50.932;6.780;2023-09-08T15:03:37;34.50;56.90
9984;DHT22;16737;50.932;6.780;2023-09-08T15:06:04;34.40;57.00
9984;DHT22;16737;50.932;6.780;2023-09-08T15:08:33;34.40;56.70
9984;DHT22;16737;50.932;6.780;2023-09-08T15:11:00;34.40;57.00
9984;DHT22;16737;50.932;6.780;2023-09-08T15:13:27;34.50;57.10
9984;DHT22;16737;50.932;6.780;2023-09-08T15:15:54;34.40;56.80
9984;DHT22;16737;50.932;6.780;2023-09-08T15:18:22;34.50;56.90
9984;DHT22;16737;50.932;6.780;2023-09-08T15:20:51;34.40;56.50
9984;DHT22;16737;50.932;6.780;2023-09-08T15:23:19;34.40;56.40
9984;DHT22;16737;50.932;6.780;2023-09-08T15:25:56;34.40;56.60
9984;DHT22;16737;50.932;6.780;2023-09-08T15:28:24;34.40;56.10
9984;DHT22;16737;50.932;6.780;2023-09-08T15:30:53;34.40;56.40
9984;DHT22;16737;50.932;6.780;2023-09-08T15:33:22;34.40;56.30
9984;DHT22;16737;50.932;6.780;2023-09-08T15:35:49;34.40;56.20
9984;DHT22;16737;50.932;6.780;2023-09-08T15:38:17;34.30;56.10
9984;DHT22;16737;50.932;6.780;2023-09-08T15:41:13;34.30;56.00
9984;DHT22;16737;50.932;6.780;2023-09-08T15:43:45;34.30;56.20
9984;DHT22;16737;50.932;6.780;2023-09-08T15:46:14;34.30;56.00
9984;DHT22;16737;50.932;6.780;2023-09-08T15:48:42;34.20;56.20
9984;DHT22;16737;50.932;6.780;2023-09-08T15:51:09;34.20;56.00